sensor_id;sensor_type;location;lat;lon;timestamp;P1;durP1;ratioP1;P2;durP2;ratioP2
73452;SDS011;61687;56.232;43.854;2023-02-21T00:00:55;37.35;;;14.07;;
73452;SDS011;61687;56.232;43.854;2023-02-21T00:03:39;37.67;;;15.53;;
73452;SDS011;61687;56.232;43.854;2023-02-21T00:06:24;40.03;;;13.75;;
73452;SDS011;61687;56.232;43.854;2023-02-21T00:09:08;40.72;;;15.70;;
73452;SDS011;61687;56.232;43.854;2023-02-21T00:11:52;43.90;;;16.08;;
73452;SDS011;61687;56.232;43.854;2023-02-21T00:14:36;43.78;;;15.35;;
73452;SDS011;61687;56.232;43.854;2023-02-21T00:17:21;43.50;;;16.77;;
73452;SDS011;61687;56.232;43.854;2023-02-21T00:20:06;41.17;;;15.73;;
73452;SDS011;61687;56.232;43.854;2023-02-21T00:22:51;37.80;;;15.40;;
73452;SDS011;61687;56.232;43.854;2023-02-21T00:25:35;46.53;;;16.70;;
73452;SDS011;61687;56.232;43.854;2023-02-21T00:28:20;36.97;;;13.48;;
73452;SDS011;61687;56.232;43.854;2023-02-21T00:31:04;43.57;;;15.40;;
73452;SDS011;61687;56.232;43.854;2023-02-21T00:33:50;42.70;;;16.48;;
73452;SDS011;61687;56.232;43.854;2023-02-21T00:36:35;47.50;;;16.13;;
73452;SDS011;61687;56.232;43.854;2023-02-21T00:39:19;41.90;;;16.67;;
73452;SDS011;61687;56.232;43.854;2023-02-21T00:42:03;42.03;;;16.35;;
73452;SDS011;61687;56.232;43.854;2023-02-21T00:44:48;40.67;;;15.67;;
73452;SDS011;61687;56.232;43.854;2023-02-21T00:47:32;48.17;;;17.95;;
73452;SDS011;61687;56.232;43.854;2023-02-21T00:50:16;44.33;;;17.52;;
73452;SDS011;61687;56.232;43.854;2023-02-21T00:53:00;47.10;;;16.30;;
73452;SDS011;61687;56.232;43.854;2023-02-21T00:55:45;50.45;;;16.95;;
73452;SDS011;61687;56.232;43.854;2023-02-21T00:58:29;41.27;;;14.67;;
73452;SDS011;61687;56.232;43.854;2023-02-21T01:01:13;46.65;;;16.58;;
73452;SDS011;61687;56.232;43.854;2023-02-21T01:03:58;48.42;;;16.63;;
73452;SDS011;61687;56.232;43.854;2023-02-21T01:06:44;45.58;;;16.48;;
73452;SDS011;61687;56.232;43.854;2023-02-21T01:09:29;42.08;;;15.25;;
73452;SDS011;61687;56.232;43.854;2023-02-21T01:12:13;41.77;;;15.83;;
73452;SDS011;61687;56.232;43.854;2023-02-21T01:14:57;55.15;;;17.25;;
73452;SDS011;61687;56.232;43.854;2023-02-21T01:17:42;44.75;;;16.75;;
73452;SDS011;61687;56.232;43.854;2023-02-21T01:20:27;44.22;;;16.05;;
73452;SDS011;61687;56.232;43.854;2023-02-21T01:23:11;49.63;;;17.20;;
73452;SDS011;61687;56.232;43.854;2023-02-21T01:25:55;42.60;;;15.73;;
73452;SDS011;61687;56.232;43.854;2023-02-21T01:28:39;46.55;;;16.80;;
73452;SDS011;61687;56.232;43.854;2023-02-21T01:31:23;47.47;;;17.60;;
73452;SDS011;61687;56.232;43.854;2023-02-21T01:34:08;43.53;;;16.73;;
73452;SDS011;61687;56.232;43.854;2023-02-21T01:36:52;40.88;;;16.08;;
73452;SDS011;61687;56.232;43.854;2023-02-21T01:39:37;58.00;;;17.67;;
73452;SDS011;61687;56.232;43.854;2023-02-21T01:42:21;41.65;;;16.42;;
73452;SDS011;61687;56.232;43.854;2023-02-21T01:48:13;46.05;;;16.05;;
73452;SDS011;61687;56.232;43.854;2023-02-21T01:51:00;48.28;;;17.05;;
73452;SDS011;61687;56.232;43.854;2023-02-21T01:53:47;40.47;;;15.37;;
73452;SDS011;61687;56.232;43.854;2023-02-21T01:56:31;40.33;;;15.52;;
73452;SDS011;61687;56.232;43.854;2023-02-21T01:59:17;45.85;;;17.42;;
73452;SDS011;61687;56.232;43.854;2023-02-21T02:05:11;46.90;;;16.17;;
73452;SDS011;61687;56.232;43.854;2023-02-21T02:07:56;50.50;;;17.07;;
73452;SDS011;61687;56.232;43.854;2023-02-21T02:10:41;42.30;;;15.52;;
73452;SDS011;61687;56.232;43.854;2023-02-21T02:13:42;52.30;;;19.42;;
73452;SDS011;61687;56.232;43.854;2023-02-21T02:16:23;48.15;;;17.65;;
73452;SDS011;61687;56.232;43.854;2023-02-21T02:24:52;54.13;;;18.70;;
73452;SDS011;61687;56.232;43.854;2023-02-21T02:35:50;52.30;;;19.13;;
73452;SDS011;61687;56.232;43.854;2023-02-21T02:43:48;56.47;;;19.88;;
73452;SDS011;61687;56.232;43.854;2023-02-21T02:46:23;79.07;;;24.92;;
73452;SDS011;61687;56.232;43.854;2023-02-21T02:49:01;56.73;;;21.07;;
73452;SDS011;61687;56.232;43.854;2023-02-21T02:51:34;66.70;;;22.17;;
73452;SDS011;61687;56.232;43.854;2023-02-21T02:54:03;63.33;;;24.00;;
73452;SDS011;61687;56.232;43.854;2023-02-21T02:56:29;73.57;;;22.77;;
73452;SDS011;61687;56.232;43.854;2023-02-21T02:59:00;61.65;;;22.00;;
73452;SDS011;61687;56.232;43.854;2023-02-21T03:12:37;65.35;;;21.55;;
73452;SDS011;61687;56.232;43.854;2023-02-21T03:17:53;60.88;;;21.70;;
73452;SDS011;61687;56.232;43.854;2023-02-21T03:20:26;67.57;;;24.20;;
73452;SDS011;61687;56.232;43.854;2023-02-21T03:22:53;73.53;;;23.17;;
73452;SDS011;61687;56.232;43.854;2023-02-21T03:25:21;63.45;;;21.95;;
73452;SDS011;61687;56.232;43.854;2023-02-21T03:27:53;65.10;;;22.20;;
73452;SDS011;61687;56.232;43.854;2023-02-21T03:30:25;65.45;;;24.23;;
73452;SDS011;61687;56.232;43.854;2023-02-21T03:32:52;63.88;;;24.35;;
73452;SDS011;61687;56.232;43.854;2023-02-21T03:35:22;73.25;;;23.60;;
73452;SDS011;61687;56.232;43.854;2023-02-21T03:37:49;58.33;;;23.02;;
73452;SDS011;61687;56.232;43.854;2023-02-21T03:40:21;56.97;;;23.63;;
73452;SDS011;61687;56.232;43.854;2023-02-21T03:42:55;63.15;;;22.98;;
73452;SDS011;61687;56.232;43.854;2023-02-21T03:45:24;55.58;;;21.67;;
73452;SDS011;61687;56.232;43.854;2023-02-21T03:48:10;51.90;;;19.85;;
73452;SDS011;61687;56.232;43.854;2023-02-21T03:50:38;60.05;;;21.85;;
73452;SDS011;61687;56.232;43.854;2023-02-21T03:53:04;55.90;;;20.83;;
73452;SDS011;61687;56.232;43.854;2023-02-21T03:55:32;61.17;;;21.17;;
73452;SDS011;61687;56.232;43.854;2023-02-21T03:58:02;64.72;;;21.88;;
73452;SDS011;61687;56.232;43.854;2023-02-21T04:00:29;56.67;;;20.98;;
73452;SDS011;61687;56.232;43.854;2023-02-21T04:02:55;62.47;;;22.55;;
73452;SDS011;61687;56.232;43.854;2023-02-21T04:05:31;59.57;;;22.13;;
73452;SDS011;61687;56.232;43.854;2023-02-21T04:07:58;55.50;;;21.58;;
73452;SDS011;61687;56.232;43.854;2023-02-21T04:10:24;61.95;;;20.00;;
73452;SDS011;61687;56.232;43.854;2023-02-21T04:12:49;61.58;;;22.70;;
73452;SDS011;61687;56.232;43.854;2023-02-21T04:15:15;54.10;;;20.57;;
73452;SDS011;61687;56.232;43.854;2023-02-21T04:17:41;61.15;;;22.92;;
73452;SDS011;61687;56.232;43.854;2023-02-21T04:20:08;55.67;;;20.55;;
73452;SDS011;61687;56.232;43.854;2023-02-21T04:22:39;55.65;;;21.33;;
73452;SDS011;61687;56.232;43.854;2023-02-21T04:25:06;56.63;;;19.90;;
73452;SDS011;61687;56.232;43.854;2023-02-21T04:27:38;60.90;;;21.58;;
73452;SDS011;61687;56.232;43.854;2023-02-21T04:30:04;63.53;;;20.75;;
73452;SDS011;61687;56.232;43.854;2023-02-21T04:32:30;62.83;;;21.20;;
73452;SDS011;61687;56.232;43.854;2023-02-21T04:34:58;56.93;;;20.87;;
73452;SDS011;61687;56.232;43.854;2023-02-21T04:37:24;57.03;;;21.42;;
73452;SDS011;61687;56.232;43.854;2023-02-21T04:39:51;57.85;;;20.70;;
73452;SDS011;61687;56.232;43.854;2023-02-21T04:42:17;56.97;;;20.27;;
73452;SDS011;61687;56.232;43.854;2023-02-21T04:44:43;59.08;;;20.60;;
73452;SDS011;61687;56.232;43.854;2023-02-21T04:47:09;59.97;;;21.73;;
73452;SDS011;61687;56.232;43.854;2023-02-21T04:49:35;51.33;;;21.02;;
73452;SDS011;61687;56.232;43.854;2023-02-21T04:52:01;63.37;;;21.47;;
73452;SDS011;61687;56.232;43.854;2023-02-21T04:54:27;53.58;;;19.42;;
73452;SDS011;61687;56.232;43.854;2023-02-21T04:56:53;64.25;;;24.05;;
73452;SDS011;61687;56.232;43.854;2023-02-21T04:59:18;58.55;;;22.42;;
73452;SDS011;61687;56.232;43.854;2023-02-21T05:01:44;58.60;;;19.87;;
73452;SDS011;61687;56.232;43.854;2023-02-21T05:04:10;59.78;;;20.90;;
73452;SDS011;61687;56.232;43.854;2023-02-21T05:06:36;56.88;;;21.10;;
73452;SDS011;61687;56.232;43.854;2023-02-21T05:09:02;62.13;;;21.63;;
73452;SDS011;61687;56.232;43.854;2023-02-21T05:11:31;70.70;;;23.10;;
73452;SDS011;61687;56.232;43.854;2023-02-21T05:13:59;65.60;;;22.40;;
73452;SDS011;61687;56.232;43.854;2023-02-21T05:16:24;70.07;;;23.30;;
73452;SDS011;61687;56.232;43.854;2023-02-21T05:18:51;67.65;;;26.00;;
73452;SDS011;61687;56.232;43.854;2023-02-21T05:21:17;69.95;;;23.45;;
73452;SDS011;61687;56.232;43.854;2023-02-21T05:23:44;61.80;;;21.40;;
73452;SDS011;61687;56.232;43.854;2023-02-21T05:26:21;66.38;;;22.92;;
73452;SDS011;61687;56.232;43.854;2023-02-21T05:28:49;58.03;;;21.43;;
73452;SDS011;61687;56.232;43.854;2023-02-21T05:31:16;65.63;;;21.33;;
73452;SDS011;61687;56.232;43.854;2023-02-21T05:33:42;61.80;;;22.17;;
73452;SDS011;61687;56.232;43.854;2023-02-21T05:36:07;68.23;;;22.83;;
73452;SDS011;61687;56.232;43.854;2023-02-21T05:38:37;66.30;;;21.80;;
73452;SDS011;61687;56.232;43.854;2023-02-21T05:41:13;67.70;;;22.33;;
73452;SDS011;61687;56.232;43.854;2023-02-21T05:43:39;55.75;;;21.42;;
73452;SDS011;61687;56.232;43.854;2023-02-21T05:46:04;64.93;;;22.27;;
73452;SDS011;61687;56.232;43.854;2023-02-21T05:48:30;52.05;;;22.13;;
73452;SDS011;61687;56.232;43.854;2023-02-21T05:50:56;52.00;;;20.87;;
73452;SDS011;61687;56.232;43.854;2023-02-21T05:53:22;56.53;;;21.13;;
73452;SDS011;61687;56.232;43.854;2023-02-21T05:55:48;60.57;;;22.57;;
73452;SDS011;61687;56.232;43.854;2023-02-21T05:58:13;70.93;;;23.58;;
73452;SDS011;61687;56.232;43.854;2023-02-21T06:00:39;68.63;;;22.80;;
73452;SDS011;61687;56.232;43.854;2023-02-21T06:03:05;61.00;;;22.17;;
73452;SDS011;61687;56.232;43.854;2023-02-21T06:05:31;53.60;;;20.40;;
73452;SDS011;61687;56.232;43.854;2023-02-21T06:07:58;70.80;;;24.67;;
73452;SDS011;61687;56.232;43.854;2023-02-21T06:10:24;54.17;;;21.43;;
73452;SDS011;61687;56.232;43.854;2023-02-21T06:12:50;68.60;;;23.42;;
73452;SDS011;61687;56.232;43.854;2023-02-21T06:15:16;68.75;;;23.27;;
73452;SDS011;61687;56.232;43.854;2023-02-21T06:17:42;72.88;;;23.75;;
73452;SDS011;61687;56.232;43.854;2023-02-21T06:20:09;67.00;;;23.23;;
73452;SDS011;61687;56.232;43.854;2023-02-21T06:22:38;74.10;;;25.42;;
73452;SDS011;61687;56.232;43.854;2023-02-21T06:25:05;75.95;;;27.45;;
73452;SDS011;61687;56.232;43.854;2023-02-21T06:27:31;71.47;;;26.40;;
73452;SDS011;61687;56.232;43.854;2023-02-21T06:29:57;70.23;;;25.53;;
73452;SDS011;61687;56.232;43.854;2023-02-21T06:32:23;74.57;;;25.92;;
73452;SDS011;61687;56.232;43.854;2023-02-21T06:34:49;66.53;;;25.40;;
73452;SDS011;61687;56.232;43.854;2023-02-21T06:37:16;74.00;;;23.87;;
73452;SDS011;61687;56.232;43.854;2023-02-21T06:39:43;72.63;;;25.42;;
73452;SDS011;61687;56.232;43.854;2023-02-21T06:42:12;68.25;;;25.77;;
73452;SDS011;61687;56.232;43.854;2023-02-21T06:44:41;68.93;;;26.70;;
73452;SDS011;61687;56.232;43.854;2023-02-21T06:47:08;73.28;;;23.88;;
73452;SDS011;61687;56.232;43.854;2023-02-21T06:49:34;76.85;;;26.30;;
73452;SDS011;61687;56.232;43.854;2023-02-21T06:52:00;68.88;;;25.67;;
73452;SDS011;61687;56.232;43.854;2023-02-21T06:54:26;67.93;;;25.92;;
73452;SDS011;61687;56.232;43.854;2023-02-21T06:56:52;77.03;;;25.58;;
73452;SDS011;61687;56.232;43.854;2023-02-21T06:59:17;69.65;;;24.73;;
73452;SDS011;61687;56.232;43.854;2023-02-21T07:01:43;62.27;;;23.73;;
73452;SDS011;61687;56.232;43.854;2023-02-21T07:04:09;74.00;;;26.25;;
73452;SDS011;61687;56.232;43.854;2023-02-21T07:06:35;71.77;;;26.57;;
73452;SDS011;61687;56.232;43.854;2023-02-21T07:09:01;68.40;;;25.35;;
73452;SDS011;61687;56.232;43.854;2023-02-21T07:11:27;70.35;;;26.20;;
73452;SDS011;61687;56.232;43.854;2023-02-21T07:13:55;76.67;;;25.93;;
73452;SDS011;61687;56.232;43.854;2023-02-21T07:16:24;70.15;;;25.40;;
73452;SDS011;61687;56.232;43.854;2023-02-21T07:18:50;70.85;;;27.38;;
73452;SDS011;61687;56.232;43.854;2023-02-21T07:21:16;70.18;;;26.20;;
73452;SDS011;61687;56.232;43.854;2023-02-21T07:23:44;63.38;;;24.65;;
73452;SDS011;61687;56.232;43.854;2023-02-21T07:26:11;61.23;;;23.07;;
73452;SDS011;61687;56.232;43.854;2023-02-21T07:28:38;61.92;;;23.13;;
73452;SDS011;61687;56.232;43.854;2023-02-21T07:31:04;59.40;;;23.45;;
73452;SDS011;61687;56.232;43.854;2023-02-21T07:33:30;63.33;;;23.63;;
73452;SDS011;61687;56.232;43.854;2023-02-21T07:35:56;64.17;;;24.60;;
73452;SDS011;61687;56.232;43.854;2023-02-21T07:38:22;63.33;;;24.17;;
73452;SDS011;61687;56.232;43.854;2023-02-21T07:40:50;68.60;;;25.25;;
73452;SDS011;61687;56.232;43.854;2023-02-21T07:43:19;65.03;;;23.38;;
73452;SDS011;61687;56.232;43.854;2023-02-21T07:45:45;65.40;;;23.00;;
73452;SDS011;61687;56.232;43.854;2023-02-21T07:48:11;67.25;;;25.45;;
73452;SDS011;61687;56.232;43.854;2023-02-21T07:50:42;64.97;;;23.13;;
73452;SDS011;61687;56.232;43.854;2023-02-21T07:53:08;62.20;;;22.93;;
73452;SDS011;61687;56.232;43.854;2023-02-21T07:55:35;70.30;;;25.02;;
73452;SDS011;61687;56.232;43.854;2023-02-21T07:58:01;71.20;;;24.30;;
73452;SDS011;61687;56.232;43.854;2023-02-21T08:00:27;56.78;;;22.40;;
73452;SDS011;61687;56.232;43.854;2023-02-21T08:02:53;53.83;;;22.00;;
73452;SDS011;61687;56.232;43.854;2023-02-21T08:05:19;55.15;;;22.20;;
73452;SDS011;61687;56.232;43.854;2023-02-21T08:07:45;55.55;;;21.92;;
73452;SDS011;61687;56.232;43.854;2023-02-21T08:10:12;49.28;;;19.10;;
73452;SDS011;61687;56.232;43.854;2023-02-21T08:12:43;56.17;;;22.23;;
73452;SDS011;61687;56.232;43.854;2023-02-21T08:15:09;57.00;;;22.70;;
73452;SDS011;61687;56.232;43.854;2023-02-21T08:17:35;50.55;;;20.02;;
73452;SDS011;61687;56.232;43.854;2023-02-21T08:20:01;53.03;;;20.43;;
73452;SDS011;61687;56.232;43.854;2023-02-21T08:22:28;55.00;;;20.05;;
73452;SDS011;61687;56.232;43.854;2023-02-21T08:24:54;55.33;;;21.73;;
73452;SDS011;61687;56.232;43.854;2023-02-21T08:27:20;53.90;;;21.57;;
73452;SDS011;61687;56.232;43.854;2023-02-21T08:29:48;57.75;;;22.85;;
73452;SDS011;61687;56.232;43.854;2023-02-21T08:32:15;56.90;;;20.98;;
73452;SDS011;61687;56.232;43.854;2023-02-21T08:34:45;61.33;;;21.23;;
73452;SDS011;61687;56.232;43.854;2023-02-21T08:37:12;62.10;;;23.07;;
73452;SDS011;61687;56.232;43.854;2023-02-21T08:39:48;58.95;;;22.98;;
73452;SDS011;61687;56.232;43.854;2023-02-21T08:42:15;56.92;;;22.00;;
73452;SDS011;61687;56.232;43.854;2023-02-21T08:44:47;55.42;;;21.73;;
73452;SDS011;61687;56.232;43.854;2023-02-21T08:47:13;60.17;;;23.02;;
73452;SDS011;61687;56.232;43.854;2023-02-21T08:49:44;63.90;;;21.00;;
73452;SDS011;61687;56.232;43.854;2023-02-21T08:52:12;57.13;;;21.85;;
73452;SDS011;61687;56.232;43.854;2023-02-21T08:54:42;57.08;;;22.15;;
73452;SDS011;61687;56.232;43.854;2023-02-21T08:57:08;56.13;;;21.23;;
73452;SDS011;61687;56.232;43.854;2023-02-21T08:59:34;63.15;;;25.52;;
73452;SDS011;61687;56.232;43.854;2023-02-21T09:02:02;62.47;;;24.17;;
73452;SDS011;61687;56.232;43.854;2023-02-21T09:04:28;58.60;;;22.50;;
73452;SDS011;61687;56.232;43.854;2023-02-21T09:06:54;67.50;;;23.02;;
73452;SDS011;61687;56.232;43.854;2023-02-21T09:09:21;63.93;;;23.83;;
73452;SDS011;61687;56.232;43.854;2023-02-21T09:11:47;58.25;;;23.85;;
73452;SDS011;61687;56.232;43.854;2023-02-21T09:14:14;56.70;;;23.75;;
73452;SDS011;61687;56.232;43.854;2023-02-21T09:16:40;60.20;;;24.92;;
73452;SDS011;61687;56.232;43.854;2023-02-21T09:19:07;64.07;;;23.90;;
73452;SDS011;61687;56.232;43.854;2023-02-21T09:21:34;54.97;;;22.40;;
73452;SDS011;61687;56.232;43.854;2023-02-21T09:24:00;60.20;;;23.67;;
73452;SDS011;61687;56.232;43.854;2023-02-21T09:26:27;67.18;;;24.50;;
73452;SDS011;61687;56.232;43.854;2023-02-21T09:28:56;61.90;;;25.55;;
73452;SDS011;61687;56.232;43.854;2023-02-21T09:31:23;66.10;;;25.25;;
73452;SDS011;61687;56.232;43.854;2023-02-21T09:33:49;52.17;;;18.93;;
73452;SDS011;61687;56.232;43.854;2023-02-21T09:36:15;64.45;;;26.55;;
73452;SDS011;61687;56.232;43.854;2023-02-21T09:38:41;68.63;;;24.77;;
73452;SDS011;61687;56.232;43.854;2023-02-21T09:41:07;81.05;;;28.90;;
73452;SDS011;61687;56.232;43.854;2023-02-21T09:43:37;71.27;;;27.67;;
73452;SDS011;61687;56.232;43.854;2023-02-21T09:46:08;79.85;;;30.27;;
73452;SDS011;61687;56.232;43.854;2023-02-21T09:48:42;81.38;;;30.08;;
73452;SDS011;61687;56.232;43.854;2023-02-21T09:51:10;73.70;;;29.90;;
73452;SDS011;61687;56.232;43.854;2023-02-21T09:53:38;81.30;;;30.00;;
73452;SDS011;61687;56.232;43.854;2023-02-21T09:56:27;81.73;;;28.33;;
73452;SDS011;61687;56.232;43.854;2023-02-21T09:59:03;93.05;;;34.25;;
73452;SDS011;61687;56.232;43.854;2023-02-21T10:07:23;97.65;;;35.35;;
73452;SDS011;61687;56.232;43.854;2023-02-21T10:10:01;101.57;;;36.27;;
73452;SDS011;61687;56.232;43.854;2023-02-21T10:15:35;108.68;;;37.45;;
73452;SDS011;61687;56.232;43.854;2023-02-21T10:20:55;93.28;;;33.88;;
73452;SDS011;61687;56.232;43.854;2023-02-21T10:23:26;97.20;;;33.23;;
73452;SDS011;61687;56.232;43.854;2023-02-21T10:26:00;97.40;;;35.22;;
73452;SDS011;61687;56.232;43.854;2023-02-21T10:28:31;97.00;;;35.38;;
73452;SDS011;61687;56.232;43.854;2023-02-21T10:30:58;97.70;;;34.72;;
73452;SDS011;61687;56.232;43.854;2023-02-21T10:33:27;94.85;;;35.45;;
73452;SDS011;61687;56.232;43.854;2023-02-21T10:35:54;91.53;;;33.40;;
73452;SDS011;61687;56.232;43.854;2023-02-21T10:38:23;81.35;;;30.70;;
73452;SDS011;61687;56.232;43.854;2023-02-21T10:40:54;73.30;;;29.15;;
73452;SDS011;61687;56.232;43.854;2023-02-21T10:43:25;78.18;;;28.88;;
73452;SDS011;61687;56.232;43.854;2023-02-21T10:48:41;75.73;;;23.90;;
73452;SDS011;61687;56.232;43.854;2023-02-21T10:51:12;73.45;;;26.13;;
73452;SDS011;61687;56.232;43.854;2023-02-21T10:53:44;78.35;;;28.88;;
73452;SDS011;61687;56.232;43.854;2023-02-21T10:58:43;81.65;;;28.65;;
73452;SDS011;61687;56.232;43.854;2023-02-21T11:01:11;77.40;;;28.30;;
73452;SDS011;61687;56.232;43.854;2023-02-21T11:04:00;78.15;;;29.50;;
73452;SDS011;61687;56.232;43.854;2023-02-21T11:08:54;88.43;;;28.88;;
73452;SDS011;61687;56.232;43.854;2023-02-21T11:11:30;74.83;;;27.77;;
73452;SDS011;61687;56.232;43.854;2023-02-21T11:16:42;79.28;;;27.58;;
73452;SDS011;61687;56.232;43.854;2023-02-21T11:19:09;75.13;;;27.50;;
73452;SDS011;61687;56.232;43.854;2023-02-21T11:21:38;75.13;;;25.37;;
73452;SDS011;61687;56.232;43.854;2023-02-21T11:24:06;64.38;;;25.42;;
73452;SDS011;61687;56.232;43.854;2023-02-21T11:26:37;63.08;;;24.30;;
73452;SDS011;61687;56.232;43.854;2023-02-21T11:29:14;63.45;;;24.02;;
73452;SDS011;61687;56.232;43.854;2023-02-21T11:31:45;68.10;;;25.88;;
73452;SDS011;61687;56.232;43.854;2023-02-21T11:34:11;69.20;;;25.37;;
73452;SDS011;61687;56.232;43.854;2023-02-21T11:36:39;64.22;;;24.77;;
73452;SDS011;61687;56.232;43.854;2023-02-21T11:39:18;63.38;;;25.65;;
73452;SDS011;61687;56.232;43.854;2023-02-21T11:41:46;66.40;;;26.55;;
73452;SDS011;61687;56.232;43.854;2023-02-21T11:47:11;70.38;;;24.80;;
73452;SDS011;61687;56.232;43.854;2023-02-21T11:49:56;52.53;;;20.90;;
73452;SDS011;61687;56.232;43.854;2023-02-21T11:55:11;67.45;;;25.27;;
73452;SDS011;61687;56.232;43.854;2023-02-21T12:11:36;41.58;;;17.55;;
73452;SDS011;61687;56.232;43.854;2023-02-21T12:15:07;52.95;;;19.73;;
73452;SDS011;61687;56.232;43.854;2023-02-21T12:31:05;64.77;;;24.30;;
73452;SDS011;61687;56.232;43.854;2023-02-21T12:39:18;58.92;;;21.83;;
73452;SDS011;61687;56.232;43.854;2023-02-21T12:47:59;58.97;;;21.63;;
73452;SDS011;61687;56.232;43.854;2023-02-21T12:50:35;56.53;;;21.63;;
73452;SDS011;61687;56.232;43.854;2023-02-21T12:53:18;53.67;;;20.92;;
73452;SDS011;61687;56.232;43.854;2023-02-21T12:56:01;63.65;;;22.90;;
73452;SDS011;61687;56.232;43.854;2023-02-21T12:58:39;66.13;;;22.13;;
73452;SDS011;61687;56.232;43.854;2023-02-21T13:01:27;62.20;;;22.48;;
73452;SDS011;61687;56.232;43.854;2023-02-21T13:06:49;54.17;;;20.40;;
73452;SDS011;61687;56.232;43.854;2023-02-21T13:09:30;61.85;;;21.73;;
73452;SDS011;61687;56.232;43.854;2023-02-21T13:12:02;57.07;;;22.33;;
73452;SDS011;61687;56.232;43.854;2023-02-21T13:14:35;59.38;;;22.60;;
73452;SDS011;61687;56.232;43.854;2023-02-21T13:17:03;58.42;;;21.33;;
73452;SDS011;61687;56.232;43.854;2023-02-21T13:19:39;60.33;;;21.02;;
73452;SDS011;61687;56.232;43.854;2023-02-21T13:28:19;64.85;;;21.90;;
73452;SDS011;61687;56.232;43.854;2023-02-21T13:30:59;57.92;;;21.88;;
73452;SDS011;61687;56.232;43.854;2023-02-21T13:42:09;58.10;;;21.80;;
73452;SDS011;61687;56.232;43.854;2023-02-21T13:44:41;59.03;;;21.05;;
73452;SDS011;61687;56.232;43.854;2023-02-21T13:47:14;59.72;;;22.42;;
73452;SDS011;61687;56.232;43.854;2023-02-21T13:49:46;57.10;;;22.00;;
73452;SDS011;61687;56.232;43.854;2023-02-21T13:57:40;59.97;;;22.35;;
73452;SDS011;61687;56.232;43.854;2023-02-21T14:00:50;63.65;;;21.98;;
73452;SDS011;61687;56.232;43.854;2023-02-21T14:15:58;67.28;;;23.45;;
73452;SDS011;61687;56.232;43.854;2023-02-21T14:21:28;55.95;;;20.63;;
73452;SDS011;61687;56.232;43.854;2023-02-21T14:31:46;72.73;;;25.43;;
73452;SDS011;61687;56.232;43.854;2023-02-21T14:34:23;70.88;;;25.20;;
73452;SDS011;61687;56.232;43.854;2023-02-21T14:36:56;57.53;;;23.88;;
73452;SDS011;61687;56.232;43.854;2023-02-21T14:39:34;66.68;;;24.77;;
73452;SDS011;61687;56.232;43.854;2023-02-21T14:44:54;78.13;;;26.80;;
73452;SDS011;61687;56.232;43.854;2023-02-21T14:56:23;75.40;;;24.33;;
73452;SDS011;61687;56.232;43.854;2023-02-21T15:09:31;71.57;;;25.15;;
73452;SDS011;61687;56.232;43.854;2023-02-21T15:11:57;61.73;;;22.40;;
73452;SDS011;61687;56.232;43.854;2023-02-21T15:14:24;63.90;;;23.27;;
73452;SDS011;61687;56.232;43.854;2023-02-21T15:16:57;64.15;;;22.00;;
73452;SDS011;61687;56.232;43.854;2023-02-21T15:19:30;62.97;;;23.25;;
73452;SDS011;61687;56.232;43.854;2023-02-21T15:30:16;61.83;;;22.40;;
73452;SDS011;61687;56.232;43.854;2023-02-21T15:32:51;61.13;;;22.02;;
73452;SDS011;61687;56.232;43.854;2023-02-21T15:35:32;65.18;;;22.73;;
73452;SDS011;61687;56.232;43.854;2023-02-21T15:38:01;72.63;;;23.10;;
73452;SDS011;61687;56.232;43.854;2023-02-21T15:40:30;64.95;;;22.00;;
73452;SDS011;61687;56.232;43.854;2023-02-21T15:42:56;61.90;;;22.40;;
73452;SDS011;61687;56.232;43.854;2023-02-21T15:45:23;68.45;;;24.35;;
73452;SDS011;61687;56.232;43.854;2023-02-21T15:47:54;56.22;;;22.55;;
73452;SDS011;61687;56.232;43.854;2023-02-21T15:50:29;68.83;;;24.70;;
73452;SDS011;61687;56.232;43.854;2023-02-21T15:53:19;72.13;;;23.90;;
73452;SDS011;61687;56.232;43.854;2023-02-21T15:55:50;73.95;;;25.00;;
73452;SDS011;61687;56.232;43.854;2023-02-21T16:01:27;73.22;;;23.45;;
73452;SDS011;61687;56.232;43.854;2023-02-21T16:06:11;73.60;;;22.20;;
73452;SDS011;61687;56.232;43.854;2023-02-21T16:14:44;69.13;;;25.75;;
73452;SDS011;61687;56.232;43.854;2023-02-21T16:19:55;67.68;;;24.33;;
73452;SDS011;61687;56.232;43.854;2023-02-21T16:28:28;71.53;;;27.35;;
73452;SDS011;61687;56.232;43.854;2023-02-21T16:30:56;71.60;;;23.67;;
73452;SDS011;61687;56.232;43.854;2023-02-21T16:33:25;74.57;;;22.88;;
73452;SDS011;61687;56.232;43.854;2023-02-21T16:35:52;74.32;;;25.90;;
73452;SDS011;61687;56.232;43.854;2023-02-21T16:38:19;76.80;;;25.98;;
73452;SDS011;61687;56.232;43.854;2023-02-21T16:40:46;76.28;;;26.88;;
73452;SDS011;61687;56.232;43.854;2023-02-21T16:43:27;58.87;;;22.53;;
73452;SDS011;61687;56.232;43.854;2023-02-21T16:45:54;67.32;;;24.23;;
73452;SDS011;61687;56.232;43.854;2023-02-21T16:48:23;72.68;;;25.33;;
73452;SDS011;61687;56.232;43.854;2023-02-21T16:50:53;71.38;;;24.15;;
73452;SDS011;61687;56.232;43.854;2023-02-21T16:53:20;63.47;;;24.08;;
73452;SDS011;61687;56.232;43.854;2023-02-21T16:55:47;70.93;;;23.03;;
73452;SDS011;61687;56.232;43.854;2023-02-21T17:00:56;65.22;;;22.20;;
73452;SDS011;61687;56.232;43.854;2023-02-21T17:03:24;68.18;;;25.25;;
73452;SDS011;61687;56.232;43.854;2023-02-21T17:05:53;60.35;;;22.83;;
73452;SDS011;61687;56.232;43.854;2023-02-21T17:08:21;64.13;;;23.27;;
73452;SDS011;61687;56.232;43.854;2023-02-21T17:10:47;63.00;;;21.90;;
73452;SDS011;61687;56.232;43.854;2023-02-21T17:13:13;46.20;;;19.23;;
73452;SDS011;61687;56.232;43.854;2023-02-21T17:15:39;58.72;;;20.00;;
73452;SDS011;61687;56.232;43.854;2023-02-21T17:18:06;55.73;;;20.07;;
73452;SDS011;61687;56.232;43.854;2023-02-21T17:20:34;59.78;;;22.77;;
73452;SDS011;61687;56.232;43.854;2023-02-21T17:23:00;58.63;;;20.02;;
73452;SDS011;61687;56.232;43.854;2023-02-21T17:25:26;57.05;;;19.88;;
73452;SDS011;61687;56.232;43.854;2023-02-21T17:27:53;57.37;;;20.53;;
73452;SDS011;61687;56.232;43.854;2023-02-21T17:30:20;54.80;;;19.58;;
73452;SDS011;61687;56.232;43.854;2023-02-21T17:32:49;54.50;;;19.73;;
73452;SDS011;61687;56.232;43.854;2023-02-21T17:35:16;52.42;;;18.33;;
73452;SDS011;61687;56.232;43.854;2023-02-21T17:37:43;56.15;;;19.83;;
73452;SDS011;61687;56.232;43.854;2023-02-21T17:40:12;63.90;;;23.43;;
73452;SDS011;61687;56.232;43.854;2023-02-21T17:42:39;62.53;;;20.48;;
73452;SDS011;61687;56.232;43.854;2023-02-21T17:45:05;66.32;;;21.70;;
73452;SDS011;61687;56.232;43.854;2023-02-21T17:47:31;49.83;;;19.58;;
73452;SDS011;61687;56.232;43.854;2023-02-21T17:49:59;47.72;;;18.95;;
73452;SDS011;61687;56.232;43.854;2023-02-21T17:52:26;59.03;;;20.27;;
73452;SDS011;61687;56.232;43.854;2023-02-21T17:54:52;48.72;;;18.67;;
73452;SDS011;61687;56.232;43.854;2023-02-21T17:57:18;53.25;;;19.52;;
73452;SDS011;61687;56.232;43.854;2023-02-21T17:59:45;58.13;;;19.10;;